Time;durP1;ratioP1;P1;durP2;ratioP2;P2;SDS_P1;SDS_P2;PMS_P1;PMS_P2;Temp;Humidity;BMP_temperature;BMP_pressure;BME280_temperature;BME280_humidity;BME280_pressure;Samples;Min_cycle;Max_cycle;Signal;HPM_P1;HPM_P2
2021/04/11 00:01:09;;;;;;;0.95;0.43;;;;;;;16.95;59.88;101191.41;6336530;22;19999;-78
2021/04/11 00:03:36;;;;;;;0.52;0.40;;;;;;;16.95;60.04;101193.13;6362513;22;20044;-77
2021/04/11 00:06:02;;;;;;;1.67;0.40;;;;;;;16.94;59.84;101187.09;6335363;22;20007;-77
2021/04/11 00:08:29;;;;;;;0.40;0.30;;;;;;;16.93;60.05;101180.13;6333827;22;20036;-77
2021/04/11 00:10:59;;;;;;;1.05;0.40;;;;;;;16.92;59.74;101177.53;6335695;22;20045;-78
2021/04/11 00:13:28;;;;;;;1.15;0.40;;;;;;;16.93;59.82;101187.94;6360945;22;20478;-78
2021/04/11 00:16:01;;;;;;;0.70;0.40;;;;;;;16.91;59.91;101191.41;6333811;22;20011;-78
2021/04/11 00:18:27;;;;;;;0.73;0.40;;;;;;;16.90;59.91;101200.94;6331480;22;20041;-78
2021/04/11 00:20:54;;;;;;;1.17;0.50;;;;;;;16.89;60.21;101196.59;6323717;22;20059;-76
2021/04/11 00:23:24;;;;;;;0.68;0.40;;;;;;;16.91;59.77;101196.59;6351020;22;19999;-78
2021/04/11 00:25:50;;;;;;;0.45;0.30;;;;;;;16.90;59.83;101193.16;6352691;22;19999;-78
2021/04/11 00:28:17;;;;;;;0.52;0.35;;;;;;;16.90;59.95;101189.66;6353331;22;20058;-78
2021/04/11 00:30:45;;;;;;;0.70;0.35;;;;;;;16.87;59.75;101187.94;6328026;22;20006;-77
2021/04/11 00:33:31;;;;;;;0.30;0.30;;;;;;;16.91;59.92;101188.81;6327800;22;20037;-77
2021/04/11 00:36:20;;;;;;;0.73;0.40;;;;;;;16.89;59.62;101186.19;6332134;22;20050;-77
2021/04/11 00:39:23;;;;;;;0.38;0.30;;;;;;;16.87;59.78;101177.53;6265101;22;20462;-77
2021/04/11 00:41:58;;;;;;;0.65;0.30;;;;;;;16.87;59.87;101182.75;6270180;22;20063;-79
2021/04/11 00:44:25;;;;;;;0.30;0.30;;;;;;;16.88;59.80;101181.03;6272041;22;20008;-78
2021/04/11 00:46:56;;;;;;;0.50;0.43;;;;;;;16.88;59.70;101179.28;6295091;22;20003;-77
2021/04/11 00:49:40;;;;;;;0.65;0.35;;;;;;;16.85;59.63;101187.97;6295455;22;20086;-77
2021/04/11 00:52:10;;;;;;;0.30;0.30;;;;;;;16.84;59.90;101182.75;6269220;22;20004;-78
2021/04/11 00:54:37;;;;;;;0.70;0.30;;;;;;;16.85;59.61;101163.69;6293592;22;20015;-78
2021/04/11 00:57:07;;;;;;;0.82;0.40;;;;;;;16.83;59.85;101150.69;6293888;22;20004;-79
2021/04/11 00:59:32;;;;;;;0.50;0.35;;;;;;;16.83;60.14;101155.00;6268640;22;20008;-78
2021/04/11 01:02:00;;;;;;;0.20;0.20;;;;;;;16.83;59.82;101150.69;6294038;22;20011;-78
2021/04/11 01:04:27;;;;;;;0.93;0.40;;;;;;;16.84;59.93;101146.38;6268113;22;20003;-77
2021/04/11 01:07:07;;;;;;;0.30;0.30;;;;;;;16.84;59.43;101155.03;6270482;22;19999;-78
2021/04/11 01:09:53;;;;;;;1.17;0.50;;;;;;;16.83;59.58;101145.50;6275507;22;20019;-78
2021/04/11 01:12:23;;;;;;;0.35;0.30;;;;;;;16.82;59.61;101141.16;6324651;22;20362;-77
2021/04/11 01:14:49;;;;;;;0.32;0.20;;;;;;;16.82;59.67;101150.69;6322647;22;20007;-77
2021/04/11 01:17:20;;;;;;;0.30;0.30;;;;;;;16.83;59.60;101155.00;6320714;22;20010;-77
2021/04/11 01:19:58;;;;;;;0.45;0.20;;;;;;;16.81;59.80;101141.16;6318423;22;20019;-77
2021/04/11 01:22:38;;;;;;;0.60;0.30;;;;;;;16.84;59.60;101148.97;6319442;22;19995;-78
2021/04/11 01:25:19;;;;;;;0.85;0.35;;;;;;;16.80;59.88;101144.63;6324776;22;20003;-77
2021/04/11 01:27:55;;;;;;;0.38;0.30;;;;;;;16.80;59.56;101131.63;6321454;22;19999;-77
2021/04/11 01:30:34;;;;;;;0.52;0.38;;;;;;;16.82;59.55;101148.09;6322168;22;20011;-77
2021/04/11 01:33:04;;;;;;;0.93;0.43;;;;;;;16.80;59.70;101158.47;6320790;22;19999;-77
2021/04/11 01:35:37;;;;;;;0.65;0.30;;;;;;;16.78;59.72;101141.13;6322098;22;20422;-78
2021/04/11 01:38:10;;;;;;;0.98;0.30;;;;;;;16.78;59.71;101157.59;6296357;22;20339;-77
2021/04/11 01:40:39;;;;;;;0.80;0.40;;;;;;;16.79;59.50;101161.94;6324187;22;20055;-77
2021/04/11 01:43:08;;;;;;;0.63;0.30;;;;;;;16.78;59.56;101160.19;6323525;22;20015;-78
2021/04/11 01:45:41;;;;;;;1.85;0.20;;;;;;;16.77;59.60;101174.06;6279123;22;20017;-78
2021/04/11 01:48:09;;;;;;;0.40;0.30;;;;;;;16.78;59.56;101175.78;6356163;22;20003;-77
2021/04/11 01:50:41;;;;;;;0.57;0.40;;;;;;;16.80;59.46;101170.63;6331487;22;20006;-77
2021/04/11 01:53:10;;;;;;;1.73;0.30;;;;;;;16.78;59.42;101177.53;6329611;22;20018;-78
2021/04/11 01:55:49;;;;;;;0.80;0.43;;;;;;;16.76;59.62;101159.31;6306800;22;20007;-77
2021/04/11 01:58:22;;;;;;;0.43;0.30;;;;;;;16.79;59.41;101163.69;6360538;22;20054;-77
2021/04/11 02:00:58;;;;;;;0.30;0.30;;;;;;;16.76;59.41;101158.47;6332130;22;20026;-78
2021/04/11 02:03:24;;;;;;;0.30;0.30;;;;;;;16.77;59.63;101161.06;6334834;22;20009;-78
2021/04/11 02:05:51;;;;;;;1.35;0.32;;;;;;;16.76;59.36;101142.88;6312195;22;19991;-78
2021/04/11 02:08:24;;;;;;;1.65;0.20;;;;;;;16.76;59.51;101148.06;6367259;22;20006;-78
2021/04/11 02:10:54;;;;;;;1.75;0.30;;;;;;;16.74;59.45;101126.41;6338783;22;20066;-77
2021/04/11 02:13:30;;;;;;;1.23;0.40;;;;;;;16.73;59.32;101122.09;6338043;22;20010;-78
2021/04/11 02:16:07;;;;;;;0.50;0.40;;;;;;;16.73;59.40;101132.50;6338560;22;20002;-78
2021/04/11 02:18:35;;;;;;;0.70;0.32;;;;;;;16.75;59.21;101151.53;6365822;22;20026;-78
2021/04/11 02:21:03;;;;;;;0.95;0.60;;;;;;;16.72;59.32;101175.78;6334037;22;20037;-77
2021/04/11 02:23:32;;;;;;;0.82;0.40;;;;;;;16.74;59.33;101173.19;6358948;22;19995;-77
2021/04/11 02:25:58;;;;;;;0.73;0.30;;;;;;;16.72;59.32;101165.38;6330307;22;20006;-78
2021/04/11 02:28:28;;;;;;;0.90;0.30;;;;;;;16.73;59.30;101159.34;6352456;22;20018;-78
2021/04/11 02:31:19;;;;;;;0.93;0.45;;;;;;;16.74;59.36;101160.19;6349157;22;20013;-77
2021/04/11 02:34:00;;;;;;;0.68;0.30;;;;;;;16.74;59.15;101173.19;6323337;22;20009;-77
2021/04/11 02:36:48;;;;;;;0.47;0.30;;;;;;;16.72;59.19;101165.38;6351060;22;20007;-77
2021/04/11 02:39:37;;;;;;;0.77;0.30;;;;;;;16.73;59.23;101180.13;6239439;23;20486;-77
2021/04/11 02:42:16;;;;;;;4.57;0.30;;;;;;;16.73;59.36;101189.66;6237026;23;20008;-78
2021/04/11 02:44:44;;;;;;;0.30;0.30;;;;;;;16.70;59.35;101187.94;6265692;23;20044;-78
2021/04/11 02:49:37;;;;;;;0.38;0.20;;;;;;;16.70;59.30;101193.13;6358365;22;20011;-78
2021/04/11 02:52:09;;;;;;;0.45;0.30;;;;;;;16.72;59.01;101206.97;6338825;22;20079;-78
2021/04/11 02:54:39;;;;;;;0.30;0.30;;;;;;;16.69;59.03;101206.13;6355034;22;20014;-78
2021/04/11 02:57:05;;;;;;;0.85;0.30;;;;;;;16.67;59.20;101201.78;6328849;22;20032;-77
2021/04/11 02:59:34;;;;;;;0.38;0.25;;;;;;;16.69;59.26;101203.53;6355574;22;20014;-78
2021/04/11 03:01:59;;;;;;;0.52;0.30;;;;;;;16.70;59.42;101200.94;6329621;22;20026;-77
2021/04/11 03:04:25;;;;;;;0.63;0.20;;;;;;;16.71;59.18;101191.41;6358898;22;20010;-78
2021/04/11 03:07:18;;;;;;;0.30;0.30;;;;;;;16.70;58.99;101187.03;6353903;22;20006;-78
2021/04/11 03:10:13;;;;;;;1.00;0.30;;;;;;;16.71;59.24;101199.19;6319606;22;19998;-77
2021/04/11 03:12:41;;;;;;;0.30;0.30;;;;;;;16.70;59.00;101195.72;6322907;22;20086;-78
2021/04/11 03:15:15;;;;;;;0.63;0.32;;;;;;;16.69;58.93;101206.13;6322948;22;19999;-77
2021/04/11 03:17:50;;;;;;;1.08;0.35;;;;;;;16.69;59.20;101204.38;6323788;22;20014;-77
2021/04/11 03:20:21;;;;;;;1.27;0.30;;;;;;;16.67;59.02;101204.38;6296661;22;20042;-77
2021/04/11 03:22:52;;;;;;;0.52;0.20;;;;;;;16.66;59.21;101207.84;6325257;22;20066;-77
2021/04/11 03:25:25;;;;;;;0.30;0.20;;;;;;;16.66;59.07;101209.59;6302725;22;20007;-78
2021/04/11 03:28:01;;;;;;;0.45;0.30;;;;;;;16.66;59.13;101219.97;6332657;22;19983;-78
2021/04/11 03:30:37;;;;;;;0.40;0.40;;;;;;;16.67;59.02;101214.75;6335245;22;20080;-78
2021/04/11 03:33:21;;;;;;;0.30;0.20;;;;;;;16.66;59.07;101204.38;6334769;22;20034;-77
2021/04/11 03:35:50;;;;;;;0.43;0.28;;;;;;;16.66;59.13;101199.19;6335504;22;19999;-77
2021/04/11 03:38:28;;;;;;;0.40;0.20;;;;;;;16.64;59.22;101193.13;6334485;22;19988;-77
2021/04/11 03:40:57;;;;;;;0.40;0.30;;;;;;;16.64;58.98;101200.94;6308008;22;20003;-78
2021/04/11 03:43:28;;;;;;;0.50;0.30;;;;;;;16.66;59.01;101210.44;6333417;22;20459;-77
2021/04/11 03:45:57;;;;;;;0.70;0.30;;;;;;;16.64;59.16;101206.13;6306567;22;19999;-78
2021/04/11 03:48:39;;;;;;;0.30;0.30;;;;;;;16.65;59.03;101206.09;6326079;22;20003;-78
2021/04/11 03:51:22;;;;;;;1.10;0.30;;;;;;;16.65;59.01;101190.50;6318373;22;20041;-78
2021/04/11 03:53:53;;;;;;;0.30;0.20;;;;;;;16.63;59.00;101200.03;6291370;22;20011;-78
2021/04/11 03:56:26;;;;;;;0.88;0.40;;;;;;;16.66;58.94;101222.59;6318068;22;19999;-78
2021/04/11 03:58:56;;;;;;;0.68;0.28;;;;;;;16.64;58.89;101214.78;6316778;22;20023;-77
2021/04/11 04:01:27;;;;;;;0.95;0.30;;;;;;;16.65;58.87;101223.44;6296339;22;20000;-78
2021/04/11 04:04:00;;;;;;;0.73;0.40;;;;;;;16.65;58.95;101224.28;6296136;22;20014;-78
2021/04/11 04:06:31;;;;;;;0.77;0.50;;;;;;;16.64;58.87;101224.31;6321606;22;20029;-78
2021/04/11 04:08:57;;;;;;;0.45;0.30;;;;;;;16.63;59.06;101228.63;6299559;22;20007;-78
2021/04/11 04:11:40;;;;;;;0.60;0.30;;;;;;;16.64;59.08;101229.50;6307889;22;20007;-78
2021/04/11 04:14:36;;;;;;;0.55;0.30;;;;;;;16.62;59.00;101226.91;6308032;22;20031;-77
2021/04/11 04:17:38;;;;;;;0.80;0.30;;;;;;;16.63;59.00;101236.41;6324083;22;20021;-77
2021/04/11 04:20:48;;;;;;;0.70;0.38;;;;;;;16.64;58.60;101232.97;6323850;22;20030;-78
2021/04/11 04:23:13;;;;;;;0.60;0.30;;;;;;;16.65;58.89;101228.63;6282477;22;20003;-77
2021/04/11 04:25:38;;;;;;;0.43;0.28;;;;;;;16.65;58.79;101233.81;6305652;22;20484;-78
2021/04/11 04:28:36;;;;;;;0.57;0.30;;;;;;;16.60;58.78;101227.78;6368888;22;20018;-78
2021/04/11 04:31:04;;;;;;;0.85;0.32;;;;;;;16.61;58.63;101226.88;6386740;22;20011;-77
2021/04/11 04:33:55;;;;;;;0.95;0.30;;;;;;;16.61;58.70;101227.78;6352438;22;20022;-77
2021/04/11 04:36:42;;;;;;;0.22;0.20;;;;;;;16.62;58.86;101231.25;6353148;22;20016;-77
2021/04/11 04:39:10;;;;;;;0.32;0.28;;;;;;;16.61;58.73;101240.78;6358019;22;20013;-78
2021/04/11 04:42:01;;;;;;;0.52;0.40;;;;;;;16.60;58.90;101228.63;6360604;22;20009;-78
2021/04/11 04:45:01;;;;;;;0.40;0.20;;;;;;;16.57;58.71;101225.16;6359314;22;20010;-78
2021/04/11 04:48:04;;;;;;;0.52;0.30;;;;;;;16.60;58.74;101233.81;6276837;22;20023;-78
2021/04/11 04:50:36;;;;;;;0.57;0.20;;;;;;;16.55;58.75;101232.97;6296225;22;20094;-77
2021/04/11 04:53:11;;;;;;;0.35;0.20;;;;;;;16.59;59.02;101247.69;6298982;22;20003;-78
2021/04/11 04:55:40;;;;;;;0.47;0.30;;;;;;;16.58;59.14;101232.09;6301965;22;20059;-78
2021/04/11 04:58:17;;;;;;;0.70;0.30;;;;;;;16.56;59.04;101242.47;6300607;22;19980;-77
2021/04/11 05:01:05;;;;;;;0.20;0.20;;;;;;;16.59;59.10;101249.41;6271380;22;20086;-77
2021/04/11 05:03:37;;;;;;;0.45;0.20;;;;;;;16.60;58.94;101253.75;6296060;22;19999;-77
2021/04/11 05:06:25;;;;;;;0.43;0.28;;;;;;;16.62;58.91;101260.69;6297272;22;20007;-77
2021/04/11 05:09:06;;;;;;;0.55;0.32;;;;;;;16.61;58.69;101261.56;6298016;22;20011;-77
2021/04/11 05:12:10;;;;;;;0.50;0.30;;;;;;;16.62;58.89;101259.81;6295684;22;20003;-77
2021/04/11 05:14:42;;;;;;;;;;;;;;;16.62;58.54;101259.81;6351884;22;20022;-77
2021/04/11 05:17:17;;;;;;;0.40;0.30;;;;;;;16.63;58.60;101262.41;6363091;22;19937;-77
2021/04/11 05:19:53;;;;;;;0.45;0.20;;;;;;;16.63;58.50;101274.53;6362622;22;20002;-78
2021/04/11 05:22:50;;;;;;;0.57;0.20;;;;;;;16.66;58.36;101272.81;6362604;22;20071;-77
2021/04/11 05:25:26;;;;;;;0.28;0.22;;;;;;;16.69;58.36;101273.69;6359653;22;20022;-77
2021/04/11 05:28:00;;;;;;;0.30;0.30;;;;;;;16.67;58.17;101271.06;6335036;22;20065;-79
2021/04/11 05:30:39;;;;;;;0.50;0.30;;;;;;;16.70;58.25;101275.41;6335959;22;20003;-77
2021/04/11 05:33:08;;;;;;;0.70;0.30;;;;;;;16.73;57.84;101280.63;6336067;22;20092;-77
2021/04/11 05:35:43;;;;;;;0.50;0.20;;;;;;;16.76;57.90;101283.22;6339879;22;20022;-77
2021/04/11 05:38:24;;;;;;;0.30;0.25;;;;;;;16.82;57.59;101293.66;6337851;22;20003;-77
2021/04/11 05:41:01;;;;;;;0.57;0.40;;;;;;;16.84;57.79;101297.13;6334672;22;20014;-77
2021/04/11 05:43:51;;;;;;;0.38;0.30;;;;;;;16.90;57.31;101309.25;6333921;22;20011;-77
2021/04/11 05:46:29;;;;;;;0.55;0.30;;;;;;;16.95;57.48;101307.53;6360306;22;20017;-78
2021/04/11 05:49:16;;;;;;;0.73;0.32;;;;;;;17.01;57.34;101303.19;6359654;22;19998;-77
2021/04/11 05:51:50;;;;;;;1.25;0.40;;;;;;;17.10;56.86;101314.47;6361025;22;20003;-77
2021/04/11 05:54:28;;;;;;;;;;;;;;;17.17;56.94;101316.19;6307954;22;20017;-78
2021/04/11 05:57:10;;;;;;;0.90;0.30;;;;;;;17.22;56.34;101319.66;6334024;22;19922;-77
2021/04/11 05:59:48;;;;;;;0.93;0.30;;;;;;;17.28;56.32;101320.50;6305683;22;20007;-78
2021/04/11 06:02:39;;;;;;;1.00;0.30;;;;;;;17.36;55.76;101328.31;6324410;22;20021;-77
2021/04/11 06:05:20;;;;;;;0.68;0.30;;;;;;;17.35;55.67;101338.72;6354437;22;20038;-77
2021/04/11 06:07:55;;;;;;;3.22;0.50;;;;;;;17.38;55.56;101342.22;6359746;22;20006;-78
2021/04/11 06:10:31;;;;;;;11.65;2.45;;;;;;;17.40;55.16;101348.28;6332584;22;20013;-78
2021/04/11 06:13:04;;;;;;;17.20;4.40;;;;;;;17.39;55.60;101343.91;6360095;22;20456;-78
2021/04/11 06:16:01;;;;;;;16.80;4.35;;;;;;;17.43;55.44;101342.19;6359455;22;20006;-78
2021/04/11 06:18:28;;;;;;;12.82;3.40;;;;;;;17.46;55.37;101343.06;6363953;22;19999;-78
2021/04/11 06:21:31;;;;;;;11.23;3.10;;;;;;;17.48;55.55;101340.44;6340678;22;20086;-78
2021/04/11 06:24:23;;;;;;;6.43;2.30;;;;;;;17.53;55.42;101336.13;6265015;23;20020;-78
2021/04/11 06:27:34;;;;;;;11.38;2.17;;;;;;;17.66;55.08;101343.03;6266657;23;20019;-78
2021/04/11 06:30:25;;;;;;;8.95;1.88;;;;;;;17.79;54.35;101346.50;6207538;23;20047;-78
2021/04/11 06:33:01;;;;;;;7.47;1.48;;;;;;;17.85;54.23;101348.22;6266979;23;20004;-78
2021/04/11 06:35:35;;;;;;;8.65;1.70;;;;;;;17.86;54.09;101348.22;6268162;22;20012;-78
2021/04/11 06:38:22;;;;;;;8.00;1.80;;;;;;;17.80;54.11;101345.59;6277550;22;20023;-78
2021/04/11 06:41:17;;;;;;;8.23;1.58;;;;;;;17.86;54.06;101353.44;6351324;22;20023;-77
2021/04/11 06:44:20;;;;;;;9.43;1.60;;;;;;;17.95;53.85;101362.97;6356097;22;20011;-78
2021/04/11 06:47:24;;;;;;;4.30;1.45;;;;;;;17.87;54.21;101370.78;6354574;22;20006;-78
2021/04/11 06:49:55;;;;;;;;;;;;;;;17.87;54.16;101373.38;6357228;22;20002;-78
2021/04/11 06:52:58;;;;;;;6.28;1.45;;;;;;;17.94;54.13;101378.59;6355401;22;19954;-78
2021/04/11 06:55:45;;;;;;;5.00;1.55;;;;;;;18.08;53.45;101387.25;6358377;22;19998;-78
2021/04/11 06:58:32;;;;;;;6.60;1.63;;;;;;;18.19;53.26;101380.25;6357780;22;20007;-79
2021/04/11 07:00:58;;;;;;;4.22;1.20;;;;;;;18.41;52.62;101385.38;6358472;22;20003;-79
2021/04/11 07:04:01;;;;;;;5.78;1.55;;;;;;;18.73;51.75;101381.72;6356088;22;20009;-80
2021/04/11 07:06:52;;;;;;;4.18;1.42;;;;;;;20.47;47.33;101383.66;6349244;22;20018;-85
2021/04/11 07:09:24;;;;;;;3.00;1.40;;;;;;;21.15;45.35;101375.75;6341499;22;19999;-91
2021/04/11 07:12:15;;;;;;;3.42;1.10;;;;;;;21.61;44.46;101368.94;6307979;22;20033;-82
2021/04/11 07:15:02;;;;;;;3.10;1.30;;;;;;;21.31;45.40;101369.38;6311290;22;20013;-88
2021/04/11 07:17:46;;;;;;;3.40;1.40;;;;;;;21.24;46.17;101377.38;6308104;22;20007;-80
2021/04/11 07:20:35;;;;;;;7.63;1.23;;;;;;;21.53;45.37;101369.03;6309443;22;20010;-79
2021/04/11 07:23:18;;;;;;;3.08;1.20;;;;;;;21.98;44.48;101374.34;6308074;22;20056;-79
2021/04/11 07:25:55;;;;;;;8.82;1.40;;;;;;;22.30;43.74;101378.97;6310204;22;20007;-86
2021/04/11 07:28:36;;;;;;;2.80;1.05;;;;;;;22.67;42.60;101370.31;6309391;22;20462;-85
2021/04/11 07:31:32;;;;;;;2.22;1.10;;;;;;;23.14;42.28;101362.22;6309548;22;20429;-87
2021/04/11 07:34:09;;;;;;;3.25;1.08;;;;;;;22.90;41.97;101372.38;6308707;22;20068;-88
2021/04/11 07:36:41;;;;;;;4.20;1.30;;;;;;;22.79;42.38;101367.38;6308374;22;20003;-87
2021/04/11 07:39:23;;;;;;;3.50;1.10;;;;;;;22.82;42.32;101368.22;6308935;22;20011;-80
2021/04/11 07:42:23;;;;;;;2.83;1.10;;;;;;;22.87;43.28;101369.84;6309689;22;20013;-88
2021/04/11 07:45:05;;;;;;;2.50;1.20;;;;;;;22.86;40.83;101373.34;6313732;22;20015;-87
2021/04/11 07:47:58;;;;;;;4.25;1.27;;;;;;;22.85;41.09;101376.88;6312882;22;20022;-80
2021/04/11 07:50:56;;;;;;;2.50;0.90;;;;;;;22.64;42.82;101377.38;6313101;22;20011;-84
2021/04/11 07:53:27;;;;;;;3.47;1.10;;;;;;;21.89;46.21;101383.22;6309997;22;20003;-88
2021/04/11 07:56:20;;;;;;;2.50;0.93;;;;;;;21.11;47.96;101387.16;6312520;22;20015;-87
2021/04/11 07:58:51;;;;;;;3.78;0.93;;;;;;;21.56;46.54;101379.47;6318485;22;20484;-85
2021/04/11 08:01:29;;;;;;;2.25;0.85;;;;;;;20.18;51.13;101403.19;6317992;22;20000;-85
2021/04/11 08:04:15;;;;;;;2.38;1.00;;;;;;;20.02;51.15;101389.44;6319172;22;20026;-84
2021/04/11 08:06:50;;;;;;;2.65;1.08;;;;;;;19.67;51.08;101395.00;6318711;22;20007;-80
2021/04/11 08:09:34;;;;;;;4.28;1.10;;;;;;;19.84;50.23;101389.66;6315732;22;20023;-81
2021/04/11 08:12:27;;;;;;;3.20;0.82;;;;;;;20.93;47.01;101394.41;6316760;22;19999;-80
2021/04/11 08:14:55;;;;;;;2.20;1.20;;;;;;;20.53;49.12;101396.66;6313951;22;20023;-83
2021/04/11 08:17:50;;;;;;;2.65;0.90;;;;;;;21.26;46.89;101399.16;6312152;22;20005;-83
2021/04/11 08:20:33;;;;;;;2.45;1.00;;;;;;;20.75;47.74;101405.13;6268263;22;20030;-81
2021/04/11 08:23:23;;;;;;;3.87;1.20;;;;;;;19.83;50.67;101417.50;6321167;22;20007;-88
2021/04/11 08:26:19;;;;;;;1.90;0.80;;;;;;;20.12;49.47;101419.81;6323924;22;20003;-83
2021/04/11 08:29:17;;;;;;;3.60;1.02;;;;;;;19.60;50.75;101427.25;6320035;22;20019;-88
2021/04/11 08:32:02;;;;;;;2.40;1.08;;;;;;;19.81;49.99;101434.06;6320021;22;20489;-80
2021/04/11 08:34:52;;;;;;;2.33;0.95;;;;;;;19.71;50.23;101438.50;6321678;22;20024;-81
2021/04/11 08:37:48;;;;;;;2.55;0.98;;;;;;;20.12;49.25;101443.34;6319850;22;19999;-86
2021/04/11 08:40:28;;;;;;;2.58;1.10;;;;;;;19.91;50.05;101436.56;6313680;22;20427;-81
2021/04/11 08:43:14;;;;;;;2.03;1.00;;;;;;;19.95;50.05;101445.25;6313194;22;20003;-79
2021/04/11 08:46:05;;;;;;;4.60;1.10;;;;;;;19.55;51.42;101448.16;6312607;22;20371;-83
2021/04/11 08:48:58;;;;;;;4.93;1.20;;;;;;;19.25;51.91;101452.75;6318831;22;20013;-79
2021/04/11 08:51:38;;;;;;;2.55;1.02;;;;;;;19.00;52.31;101451.16;6325903;22;20350;-78
2021/04/11 08:54:23;;;;;;;2.90;1.08;;;;;;;19.19;51.61;101457.16;6331144;22;19999;-81
2021/04/11 08:56:54;;;;;;;2.33;1.00;;;;;;;19.13;51.49;101457.19;6331337;22;20007;-86
2021/04/11 08:59:25;;;;;;;2.67;0.98;;;;;;;19.02;52.03;101460.72;6330491;22;20003;-87
2021/04/11 09:02:09;;;;;;;1.73;0.80;;;;;;;18.81;52.13;101466.88;6330317;22;19999;-78
2021/04/11 09:04:47;;;;;;;2.33;0.95;;;;;;;18.80;51.97;101475.59;6331623;22;19983;-82
2021/04/11 09:07:22;;;;;;;2.13;0.90;;;;;;;18.65;52.41;101486.06;6333156;22;20003;-78
2021/04/11 09:10:12;;;;;;;2.30;0.88;;;;;;;18.52;52.71;101493.06;6332731;22;20003;-77
2021/04/11 09:13:22;;;;;;;2.08;0.98;;;;;;;18.48;52.38;101492.19;6331682;22;20021;-78
2021/04/11 09:16:05;;;;;;;1.83;0.85;;;;;;;18.40;52.59;101487.88;6331383;22;19999;-77
2021/04/11 09:18:50;;;;;;;3.22;0.85;;;;;;;18.29;52.83;101500.91;6332799;22;19995;-77
2021/04/11 09:21:33;;;;;;;2.70;0.98;;;;;;;18.24;52.88;101505.28;6332943;22;20011;-77
2021/04/11 09:24:18;;;;;;;2.38;0.70;;;;;;;18.20;53.06;101507.00;6332933;22;20048;-77
2021/04/11 09:27:21;;;;;;;3.50;0.88;;;;;;;18.33;52.39;101520.88;6332165;22;20033;-77
2021/04/11 09:30:30;;;;;;;2.63;0.80;;;;;;;18.53;51.76;101523.47;6330705;22;20026;-78
2021/04/11 09:33:15;;;;;;;2.78;0.90;;;;;;;18.63;51.53;101519.94;6293336;22;20008;-78
2021/04/11 09:35:54;;;;;;;3.03;0.80;;;;;;;18.64;51.47;101524.31;6324179;22;20045;-78
2021/04/11 09:38:58;;;;;;;2.50;0.95;;;;;;;18.63;51.30;101529.50;6324700;22;20019;-78
2021/04/11 09:41:44;;;;;;;2.63;1.10;;;;;;;18.54;51.94;101519.13;6327351;22;20019;-78
2021/04/11 09:44:47;;;;;;;1.50;0.63;;;;;;;18.55;51.80;101529.53;6359116;22;20030;-78
2021/04/11 09:47:47;;;;;;;5.95;1.08;;;;;;;18.58;52.10;101529.53;6353314;22;20019;-79
2021/04/11 09:50:31;;;;;;;3.75;0.60;;;;;;;18.64;52.27;101529.53;6335696;22;20025;-78
2021/04/11 09:53:36;;;;;;;3.72;0.90;;;;;;;18.66;52.20;101535.59;6363279;22;20011;-79
2021/04/11 09:56:28;;;;;;;3.08;0.90;;;;;;;18.54;52.83;101532.16;6359965;22;20006;-78
2021/04/11 09:59:33;;;;;;;4.93;0.98;;;;;;;18.45;53.13;101527.84;6361002;22;20006;-78
2021/04/11 10:02:42;;;;;;;7.00;1.00;;;;;;;18.45;53.89;101528.69;6361440;22;20050;-79
2021/04/11 10:05:29;;;;;;;10.63;1.27;;;;;;;18.53;53.77;101528.69;6333296;22;20009;-78
2021/04/11 10:08:33;;;;;;;5.65;1.45;;;;;;;18.54;53.65;101534.75;6333179;22;20002;-78
2021/04/11 10:11:07;;;;;;;3.28;1.20;;;;;;;18.42;54.37;101543.44;6306931;22;20007;-78
2021/04/11 10:14:10;;;;;;;6.10;1.60;;;;;;;18.37;54.53;101534.78;6329548;22;20033;-78
2021/04/11 10:17:03;;;;;;;7.10;1.50;;;;;;;18.43;54.41;101532.19;6328815;22;19999;-78
2021/04/11 10:19:44;;;;;;;3.72;1.60;;;;;;;18.64;54.26;101532.13;6302851;22;20091;-78
2021/04/11 10:22:53;;;;;;;6.63;1.70;;;;;;;18.46;54.50;101533.00;6300956;22;20030;-78
2021/04/11 10:25:41;;;;;;;7.97;1.70;;;;;;;18.48;54.87;101548.66;6311492;22;20011;-79
2021/04/11 10:28:46;;;;;;;3.50;1.20;;;;;;;18.54;54.99;101555.63;6330666;22;19999;-78
2021/04/11 10:31:35;;;;;;;4.40;1.13;;;;;;;18.46;55.04;101535.63;6329272;22;20003;-79
2021/04/11 10:34:32;;;;;;;8.13;1.42;;;;;;;18.44;55.12;101544.31;6329277;22;19995;-79
2021/04/11 10:37:28;;;;;;;5.03;1.42;;;;;;;18.47;55.11;101552.16;6329152;22;20003;-79
2021/04/11 10:40:18;;;;;;;6.03;1.48;;;;;;;18.57;54.95;101561.66;6329007;22;20027;-79
2021/04/11 10:43:16;;;;;;;2.75;1.35;;;;;;;18.55;54.61;101559.94;6303181;22;20003;-81
2021/04/11 10:46:06;;;;;;;2.67;1.10;;;;;;;18.56;55.12;101559.09;6324620;22;20000;-80
2021/04/11 10:49:10;;;;;;;3.25;1.33;;;;;;;18.63;55.05;101558.19;6281818;22;20058;-78
2021/04/11 10:51:54;;;;;;;6.28;1.20;;;;;;;18.72;54.94;101571.19;6298169;22;20034;-78
2021/04/11 10:54:58;;;;;;;3.60;1.20;;;;;;;18.65;55.04;101572.94;6300774;22;20003;-78
2021/04/11 10:57:29;;;;;;;5.10;1.50;;;;;;;18.59;55.16;101572.09;6328068;22;20029;-78
2021/04/11 10:59:54;;;;;;;13.68;3.35;;;;;;;18.59;55.27;101577.31;6301685;22;20003;-78
2021/04/11 11:02:57;;;;;;;8.90;2.85;;;;;;;18.53;55.23;101570.38;6302300;22;20026;-78
2021/04/11 11:06:05;;;;;;;14.27;2.92;;;;;;;18.47;55.29;101571.25;6328609;22;20234;-78
2021/04/11 11:08:58;;;;;;;12.82;3.28;;;;;;;18.50;55.48;101588.63;6330721;22;20006;-77
2021/04/11 11:11:41;;;;;;;13.27;3.55;;;;;;;18.60;54.81;101599.91;6300801;22;20010;-79
2021/04/11 11:14:21;;;;;;;14.70;3.22;;;;;;;18.54;55.33;101597.31;6330556;22;20003;-78
2021/04/11 11:17:14;;;;;;;13.40;3.28;;;;;;;18.52;55.24;101593.84;6335287;22;20025;-78
2021/04/11 11:20:13;;;;;;;13.85;3.70;;;;;;;18.56;55.26;101609.47;6333100;22;20011;-78
2021/04/11 11:23:33;;;;;;;7.53;2.80;;;;;;;18.64;54.77;101605.13;6329240;22;20010;-78
2021/04/11 11:26:11;;;;;;;11.60;3.03;;;;;;;18.62;54.94;101606.00;6177522;23;20091;-78
2021/04/11 11:29:11;;;;;;;11.57;3.00;;;;;;;18.64;54.83;101610.34;6328192;22;20006;-78
2021/04/11 11:32:07;;;;;;;9.23;3.00;;;;;;;18.56;54.95;101611.22;6301747;22;20446;-78
2021/04/11 11:37:22;;;;;;;9.95;2.80;;;;;;;18.52;54.92;101618.16;6390117;22;20040;-80
2021/04/11 11:40:01;;;;;;;8.63;2.95;;;;;;;18.56;54.91;101625.13;6362729;22;20406;-79
2021/04/11 11:42:53;;;;;;;8.35;2.88;;;;;;;18.62;54.92;101626.84;6391022;22;20020;-80
2021/04/11 11:45:29;;;;;;;7.95;2.80;;;;;;;18.55;54.84;101618.16;6342136;22;20002;-77
2021/04/11 11:48:22;;;;;;;7.88;2.70;;;;;;;18.61;54.84;101631.19;6391925;22;19998;-78
2021/04/11 11:51:01;;;;;;;6.55;2.50;;;;;;;18.63;54.90;101623.38;6368143;22;20006;-78
2021/04/11 11:53:58;;;;;;;5.90;2.13;;;;;;;18.50;55.02;101625.97;6394778;22;20054;-78
2021/04/11 11:56:42;;;;;;;6.07;2.28;;;;;;;18.42;55.37;101630.34;6340037;22;20010;-78
2021/04/11 11:59:31;;;;;;;7.43;2.13;;;;;;;18.43;55.41;101632.06;6309044;22;20025;-80
2021/04/11 12:02:34;;;;;;;11.65;2.60;;;;;;;18.47;55.04;101648.59;6360305;22;20033;-80
2021/04/11 12:05:24;;;;;;;7.70;2.25;;;;;;;18.42;55.10;101643.38;6333092;22;20022;-79
2021/04/11 12:08:27;;;;;;;5.53;1.92;;;;;;;18.38;55.32;101653.78;6360547;22;20005;-80
2021/04/11 12:11:21;;;;;;;5.63;2.33;;;;;;;18.36;55.29;101653.78;6306499;22;20011;-80
2021/04/11 12:14:05;;;;;;;6.60;2.03;;;;;;;18.33;55.33;101651.16;6301665;22;20060;-77
2021/04/11 12:17:02;;;;;;;6.55;2.03;;;;;;;18.35;55.32;101656.38;6327162;22;20029;-80
2021/04/11 12:19:27;;;;;;;5.07;1.70;;;;;;;18.33;55.37;101669.41;6266697;23;20004;-79
2021/04/11 12:22:05;;;;;;;5.72;1.85;;;;;;;18.35;55.24;101669.41;6266660;23;20011;-79
2021/04/11 12:24:58;;;;;;;6.82;1.90;;;;;;;18.35;55.23;101667.69;6235880;23;20019;-79
2021/04/11 12:27:32;;;;;;;5.30;1.75;;;;;;;18.28;55.42;101677.22;6238174;23;20022;-79
2021/04/11 12:29:59;;;;;;;4.05;2.00;;;;;;;18.29;55.41;101680.69;6237623;23;20014;-79
2021/04/11 12:32:24;;;;;;;4.75;1.98;;;;;;;18.29;55.34;101686.78;6236405;23;20042;-79
2021/04/11 12:35:25;;;;;;;3.65;1.80;;;;;;;18.28;55.43;101694.59;6267775;23;20418;-79
2021/04/11 12:37:52;;;;;;;5.60;1.60;;;;;;;18.36;55.27;101697.22;6265838;23;20008;-79